createdAt,value
2018-05-14T00:02:24.117Z,75.22
2018-05-14T00:04:51.650Z,75.24
2018-05-14T00:07:19.184Z,75.34
2018-05-14T00:09:46.673Z,75.53
2018-05-14T00:12:14.141Z,75.81
2018-05-14T00:14:41.640Z,75.70
2018-05-14T00:17:09.182Z,75.88
2018-05-14T00:19:36.671Z,76.14
2018-05-14T00:22:04.159Z,76.52
2018-05-14T00:24:31.667Z,76.56
2018-05-14T00:26:59.187Z,76.84
2018-05-14T00:29:26.721Z,77.05
2018-05-14T00:31:54.195Z,77.15
2018-05-14T00:34:21.758Z,77.14
2018-05-14T00:36:49.302Z,77.20
2018-05-14T00:39:16.803Z,77.56
2018-05-14T00:41:44.324Z,77.60
2018-05-14T00:44:11.839Z,77.84
2018-05-14T00:46:39.436Z,77.90
2018-05-14T00:49:06.950Z,78.01
2018-05-14T00:51:34.462Z,78.15
2018-05-14T00:54:01.939Z,78.22
2018-05-14T00:56:29.416Z,78.35
2018-05-14T00:58:56.931Z,78.42
2018-05-14T01:01:24.416Z,78.20
2018-05-14T01:03:51.906Z,77.74
2018-05-14T01:06:19.452Z,77.34
2018-05-14T01:08:46.947Z,77.02
2018-05-14T01:11:14.434Z,76.80
2018-05-14T01:13:41.937Z,76.87
2018-05-14T01:16:09.463Z,76.92
2018-05-14T01:18:36.977Z,76.58
2018-05-14T01:21:04.475Z,76.92
2018-05-14T01:23:31.949Z,76.84
2018-05-14T01:25:59.454Z,77.28
2018-05-14T01:28:26.949Z,77.31
2018-05-14T01:30:54.442Z,77.39
2018-05-14T01:33:22.007Z,77.22
2018-05-14T01:35:49.513Z,77.49
2018-05-14T01:38:17.017Z,77.54
2018-05-14T01:40:44.562Z,77.40
2018-05-14T01:43:12.101Z,77.02
2018-05-14T01:45:39.676Z,76.86
2018-05-14T01:48:07.181Z,76.81
2018-05-14T01:50:34.747Z,76.80
2018-05-14T01:53:02.219Z,76.47
2018-05-14T01:55:29.683Z,77.31
2018-05-14T01:57:57.184Z,77.13
2018-05-14T02:00:24.727Z,76.80
2018-05-14T02:02:52.218Z,76.85
2018-05-14T02:05:19.714Z,76.47
2018-05-14T02:07:47.257Z,76.59
2018-05-14T02:10:14.731Z,75.63
2018-05-14T02:12:42.234Z,75.73
2018-05-14T02:15:09.836Z,75.52
2018-05-14T02:17:37.345Z,74.64
2018-05-14T02:20:04.851Z,74.95
2018-05-14T02:22:32.328Z,75.04
2018-05-14T02:24:59.836Z,74.88
2018-05-14T02:27:27.351Z,74.17
2018-05-14T02:29:54.826Z,74.19
2018-05-14T02:32:22.301Z,74.47
2018-05-14T02:34:49.827Z,74.50
2018-05-14T02:37:17.375Z,74.28
2018-05-14T02:39:44.892Z,73.93
2018-05-14T02:42:12.401Z,73.02
2018-05-14T02:44:41.190Z,73.08
2018-05-14T02:47:08.688Z,73.39
2018-05-14T02:49:36.175Z,72.87
2018-05-14T02:52:03.694Z,72.09
2018-05-14T02:54:31.276Z,71.86
2018-05-14T02:56:58.818Z,71.02
2018-05-14T02:59:26.302Z,70.94
2018-05-14T03:01:53.841Z,70.34
2018-05-14T03:04:21.377Z,70.48
2018-05-14T03:06:48.916Z,70.85
2018-05-14T03:09:16.485Z,70.72
2018-05-14T03:11:43.986Z,70.55
2018-05-14T03:14:11.502Z,69.81
2018-05-14T03:16:39.027Z,69.73
2018-05-14T03:19:06.519Z,69.69
2018-05-14T03:21:34.054Z,68.33
2018-05-14T03:24:01.584Z,68.14
2018-05-14T03:26:29.087Z,67.54
2018-05-14T03:28:56.615Z,66.69
2018-05-14T03:31:24.152Z,66.72
2018-05-14T03:33:51.628Z,66.53
2018-05-14T03:36:19.116Z,65.94
2018-05-14T03:38:47.283Z,65.24
2018-05-14T03:41:14.779Z,64.64
2018-05-14T03:43:42.279Z,64.27
2018-05-14T03:46:09.749Z,64.50
2018-05-14T03:48:37.271Z,64.50
2018-05-14T03:51:04.791Z,63.95
2018-05-14T03:53:32.269Z,63.66
2018-05-14T03:55:59.748Z,63.46
2018-05-14T03:58:39.034Z,62.72
2018-05-14T04:01:13.275Z,62.39
2018-05-14T04:03:52.488Z,62.06
2018-05-14T04:06:31.599Z,61.42
2018-05-14T04:08:59.202Z,61.38
2018-05-14T04:11:26.761Z,61.04
2018-05-14T04:13:55.199Z,60.51
2018-05-14T04:16:22.681Z,60.44
2018-05-14T04:18:50.182Z,60.24
2018-05-14T04:21:17.682Z,60.10
2018-05-14T04:23:45.189Z,59.96
2018-05-14T04:26:12.682Z,60.04
2018-05-14T04:28:40.214Z,59.69
2018-05-14T04:31:07.695Z,59.62
2018-05-14T04:33:35.195Z,59.36
2018-05-14T04:36:02.707Z,59.24
2018-05-14T04:38:30.174Z,59.10
2018-05-14T04:40:57.677Z,58.98
2018-05-14T04:43:25.175Z,58.60
2018-05-14T04:45:52.665Z,58.08
2018-05-14T04:48:20.169Z,57.58
2018-05-14T04:50:48.378Z,57.22
2018-05-14T04:53:15.834Z,56.63
2018-05-14T04:55:43.327Z,56.00
2018-05-14T04:58:10.834Z,55.67
2018-05-14T05:00:38.314Z,55.14
2018-05-14T05:03:05.796Z,55.12
2018-05-14T05:05:33.331Z,54.82
2018-05-14T05:08:00.813Z,54.88
2018-05-14T05:10:28.322Z,54.93
2018-05-14T05:12:55.841Z,54.65
2018-05-14T05:15:23.356Z,54.54
2018-05-14T05:17:50.867Z,53.97
2018-05-14T05:20:18.343Z,53.53
2018-05-14T05:22:45.888Z,53.19
2018-05-14T05:25:13.427Z,52.60
2018-05-14T05:27:40.904Z,52.45
2018-05-14T05:30:08.506Z,52.04
2018-05-14T05:32:36.006Z,51.93
2018-05-14T05:35:03.547Z,51.85
2018-05-14T05:37:31.024Z,51.37
2018-05-14T05:39:58.519Z,51.02
2018-05-14T05:42:26.045Z,50.65
2018-05-14T05:44:53.552Z,50.24
2018-05-14T05:47:21.054Z,50.14
2018-05-14T05:49:48.587Z,49.99
2018-05-14T05:52:16.115Z,49.73
2018-05-14T05:54:43.662Z,49.90
2018-05-14T05:57:11.127Z,50.00
2018-05-14T05:59:38.669Z,49.73
2018-05-14T06:02:06.182Z,49.51
2018-05-14T06:04:33.653Z,49.08
2018-05-14T06:07:01.182Z,48.20
2018-05-14T06:09:28.751Z,48.30
2018-05-14T06:11:56.206Z,48.17
2018-05-14T06:14:23.691Z,48.13
2018-05-14T06:16:51.223Z,47.72
2018-05-14T06:19:18.733Z,47.77
2018-05-14T06:21:46.245Z,48.95
2018-05-14T06:24:13.817Z,49.10
2018-05-14T06:26:41.340Z,48.92
2018-05-14T06:29:08.859Z,49.12
2018-05-14T06:31:36.391Z,48.44
2018-05-14T06:34:03.971Z,47.92
2018-05-14T06:36:31.454Z,47.93
2018-05-14T06:38:58.940Z,47.24
2018-05-14T06:41:26.419Z,47.83
2018-05-14T06:43:53.898Z,48.03
2018-05-14T06:46:21.415Z,46.19
2018-05-14T06:48:48.903Z,46.19
2018-05-14T06:51:17.025Z,45.67
2018-05-14T06:53:44.593Z,46.05
2018-05-14T06:56:12.109Z,45.93
2018-05-14T06:58:39.616Z,46.05
2018-05-14T07:01:07.091Z,45.98
2018-05-14T07:03:34.557Z,45.64
2018-05-14T07:06:02.062Z,45.51
2018-05-14T07:08:29.678Z,45.63
2018-05-14T07:10:57.219Z,45.32
2018-05-14T07:13:24.704Z,44.60
2018-05-14T07:15:52.194Z,44.34
2018-05-14T07:18:19.698Z,44.15
2018-05-14T07:20:47.223Z,43.97
2018-05-14T07:23:14.699Z,43.74
2018-05-14T07:25:42.183Z,43.29
2018-05-14T07:28:09.702Z,43.39
2018-05-14T07:30:37.199Z,43.30
2018-05-14T07:33:04.725Z,43.12
2018-05-14T07:35:32.342Z,43.23
2018-05-14T07:37:59.758Z,43.38
2018-05-14T07:40:27.287Z,42.98
2018-05-14T07:42:54.757Z,43.06
2018-05-14T07:45:22.220Z,42.66
2018-05-14T07:47:49.714Z,42.01
2018-05-14T07:50:17.248Z,41.95
2018-05-14T07:52:44.783Z,41.53
2018-05-14T07:55:12.477Z,41.41
2018-05-14T07:57:41.630Z,41.36
2018-05-14T08:00:09.163Z,40.23
2018-05-14T08:02:36.649Z,40.11
2018-05-14T08:05:04.735Z,40.45
2018-05-14T08:07:32.191Z,40.97
2018-05-14T08:09:59.712Z,40.74
2018-05-14T08:12:27.178Z,40.64
2018-05-14T08:14:54.666Z,40.37
2018-05-14T08:17:22.189Z,40.20
2018-05-14T08:19:49.652Z,40.52
2018-05-14T08:22:17.126Z,40.34
2018-05-14T08:24:44.616Z,38.88
2018-05-14T08:27:12.082Z,39.60
2018-05-14T08:29:39.607Z,40.22
2018-05-14T08:32:07.040Z,39.95
2018-05-14T08:34:34.519Z,39.83
2018-05-14T08:37:02.051Z,40.02
2018-05-14T08:39:29.599Z,39.37
2018-05-14T08:41:57.094Z,38.60
2018-05-14T08:44:24.651Z,39.04
2018-05-14T08:46:52.134Z,39.26
2018-05-14T08:49:19.649Z,39.07
2018-05-14T08:51:47.191Z,39.09
2018-05-14T08:54:14.851Z,38.83
2018-05-14T08:56:42.178Z,39.22
2018-05-14T08:59:09.658Z,39.57
2018-05-14T09:01:37.202Z,40.32
2018-05-14T09:04:04.734Z,40.44
2018-05-14T09:06:32.231Z,39.69
2018-05-14T09:08:59.732Z,39.53
2018-05-14T09:11:27.231Z,39.85
2018-05-14T09:13:55.415Z,39.78
2018-05-14T09:16:22.933Z,39.91
2018-05-14T09:18:50.414Z,39.64
2018-05-14T09:21:17.877Z,39.52
2018-05-14T09:23:45.453Z,39.44
2018-05-14T09:26:12.996Z,39.46
2018-05-14T09:28:40.485Z,39.42
2018-05-14T09:31:08.004Z,38.93
2018-05-14T09:33:36.035Z,38.78
2018-05-14T09:36:03.590Z,38.80
2018-05-14T09:38:31.094Z,38.88
2018-05-14T09:40:58.575Z,38.21
2018-05-14T09:43:26.084Z,37.69
2018-05-14T09:45:53.569Z,37.96
2018-05-14T09:48:21.064Z,39.07
2018-05-14T09:50:48.592Z,39.23
2018-05-14T09:53:16.177Z,39.18
2018-05-14T09:55:43.719Z,39.26
2018-05-14T09:58:11.271Z,39.16
2018-05-14T10:00:38.804Z,38.68
2018-05-14T10:03:06.361Z,38.33
2018-05-14T10:05:33.862Z,38.35
2018-05-14T10:08:01.426Z,37.71
2018-05-14T10:10:28.918Z,37.86
2018-05-14T10:12:56.480Z,38.12
2018-05-14T10:15:23.983Z,37.66
2018-05-14T10:17:51.474Z,37.32
2018-05-14T10:20:18.947Z,37.87
2018-05-14T10:22:46.406Z,38.38
2018-05-14T10:25:13.876Z,38.36
2018-05-14T10:27:41.389Z,38.28
2018-05-14T10:30:08.856Z,37.56
2018-05-14T10:32:36.339Z,36.40
2018-05-14T10:35:03.814Z,35.99
2018-05-14T10:37:31.290Z,36.57
2018-05-14T10:39:58.806Z,37.03
2018-05-14T10:42:26.679Z,37.78
2018-05-14T10:44:54.179Z,37.13
2018-05-14T10:47:21.747Z,36.39
2018-05-14T10:49:49.227Z,36.77
2018-05-14T10:52:16.714Z,36.06
2018-05-14T10:54:44.260Z,36.14
2018-05-14T10:57:11.742Z,36.31
2018-05-14T10:59:39.243Z,37.26
2018-05-14T11:02:06.861Z,37.15
2018-05-14T11:04:34.323Z,37.27
2018-05-14T11:07:01.834Z,37.11
2018-05-14T11:09:29.389Z,37.29
2018-05-14T11:11:56.867Z,37.08
2018-05-14T11:14:24.345Z,36.90
2018-05-14T11:16:51.996Z,36.14
2018-05-14T11:19:19.482Z,36.51
2018-05-14T11:21:46.981Z,36.36
2018-05-14T11:24:14.484Z,36.56
2018-05-14T11:26:41.977Z,36.31
2018-05-14T11:29:09.449Z,36.46
2018-05-14T11:31:36.975Z,36.47
2018-05-14T11:34:04.490Z,36.88
2018-05-14T11:36:31.977Z,37.29
2018-05-14T11:38:59.464Z,37.14
2018-05-14T11:41:27.111Z,37.07
2018-05-14T11:43:54.651Z,36.67
2018-05-14T11:46:22.168Z,36.61
2018-05-14T11:48:49.673Z,36.97
2018-05-14T11:51:17.290Z,36.89
2018-05-14T11:53:44.783Z,36.83
2018-05-14T11:56:12.293Z,37.39
2018-05-14T11:58:39.763Z,38.04
2018-05-14T12:01:07.243Z,38.24
2018-05-14T12:03:34.760Z,37.83
2018-05-14T12:06:02.311Z,38.41
2018-05-14T12:08:29.827Z,38.79
2018-05-14T12:10:57.315Z,38.60
2018-05-14T12:13:24.798Z,38.89
2018-05-14T12:15:52.303Z,38.28
2018-05-14T12:18:19.808Z,37.54
2018-05-14T12:20:47.369Z,37.21
2018-05-14T12:23:14.871Z,37.57
2018-05-14T12:25:42.372Z,38.86
2018-05-14T12:28:09.911Z,38.69
2018-05-14T12:30:37.449Z,37.58
2018-05-14T12:33:04.977Z,37.72
2018-05-14T12:35:32.493Z,37.55
2018-05-14T12:38:00.037Z,37.81
2018-05-14T12:40:27.559Z,38.10
2018-05-14T12:42:55.056Z,37.81
2018-05-14T12:45:22.556Z,36.84
2018-05-14T12:47:50.036Z,36.17
2018-05-14T12:50:17.560Z,35.41
2018-05-14T12:52:45.190Z,33.79
2018-05-14T12:55:12.704Z,33.05
2018-05-14T12:57:40.225Z,33.17
2018-05-14T13:00:07.761Z,34.96
2018-05-14T13:02:35.259Z,34.81
2018-05-14T13:05:02.751Z,33.93
2018-05-14T13:07:30.268Z,33.98
2018-05-14T13:09:57.832Z,33.16
2018-05-14T13:12:25.387Z,32.86
2018-05-14T13:14:52.881Z,32.35
2018-05-14T13:17:20.397Z,32.16
2018-05-14T13:19:47.904Z,31.92
2018-05-14T13:22:15.401Z,31.78
2018-05-14T13:24:42.928Z,30.97
2018-05-14T13:27:10.419Z,30.97
2018-05-14T13:29:37.902Z,29.84
2018-05-14T13:32:05.390Z,29.15
2018-05-14T13:34:32.852Z,29.36
2018-05-14T13:37:00.370Z,28.48
2018-05-14T13:39:27.870Z,29.34
2018-05-14T13:41:55.340Z,30.17
2018-05-14T13:44:22.872Z,29.90
2018-05-14T13:46:50.354Z,30.15
2018-05-14T13:49:17.976Z,29.79
2018-05-14T13:51:45.508Z,29.30
2018-05-14T13:54:12.963Z,29.68
2018-05-14T13:56:40.513Z,30.73
2018-05-14T13:59:08.009Z,31.91
2018-05-14T14:01:35.494Z,32.00
2018-05-14T14:04:03.036Z,32.36
2018-05-14T14:06:30.591Z,33.78
2018-05-14T14:08:58.057Z,35.72
2018-05-14T14:11:25.609Z,35.96
2018-05-14T14:13:53.089Z,35.56
2018-05-14T14:16:20.588Z,35.85
2018-05-14T14:18:48.056Z,34.88
2018-05-14T14:21:15.550Z,35.46
2018-05-14T14:23:43.223Z,36.20
2018-05-14T14:26:10.561Z,37.36
2018-05-14T14:28:38.070Z,37.31
2018-05-14T14:31:05.560Z,36.20
2018-05-14T14:33:33.020Z,37.16
2018-05-14T14:36:00.507Z,36.81
2018-05-14T14:38:27.965Z,36.74
2018-05-14T14:40:55.529Z,36.45
2018-05-14T14:43:23.053Z,36.23
2018-05-14T14:45:50.534Z,36.27
2018-05-14T14:48:18.028Z,35.44
2018-05-14T14:50:45.582Z,35.42
2018-05-14T14:53:13.043Z,36.08
2018-05-14T14:55:40.508Z,36.18
2018-05-14T14:58:07.982Z,36.52
2018-05-14T15:00:35.442Z,36.07
2018-05-14T15:03:02.906Z,36.59
2018-05-14T15:05:30.408Z,36.89
2018-05-14T15:07:57.887Z,37.63
2018-05-14T15:10:25.675Z,38.46
2018-05-14T15:12:53.168Z,39.84
2018-05-14T15:15:20.655Z,39.28
2018-05-14T15:17:48.163Z,39.27
2018-05-14T15:20:15.630Z,39.22
2018-05-14T15:22:43.155Z,38.48
2018-05-14T15:25:10.647Z,38.50
2018-05-14T15:27:38.182Z,38.32
2018-05-14T15:30:05.746Z,38.57
2018-05-14T15:32:33.238Z,38.45
2018-05-14T15:35:00.719Z,38.81
2018-05-14T15:37:28.233Z,39.25
2018-05-14T15:39:55.691Z,39.35
2018-05-14T15:42:23.176Z,39.43
2018-05-14T15:44:50.651Z,39.89
2018-05-14T15:47:18.136Z,40.52
2018-05-14T15:49:45.639Z,41.24
2018-05-14T15:52:13.136Z,41.31
2018-05-14T15:54:40.621Z,41.19
2018-05-14T15:57:08.124Z,41.19
2018-05-14T15:59:35.603Z,41.41
2018-05-14T16:02:03.060Z,41.83
2018-05-14T16:04:30.523Z,43.14
2018-05-14T16:06:58.026Z,43.58
2018-05-14T16:09:25.496Z,44.21
2018-05-14T16:11:52.959Z,44.51
2018-05-14T16:14:20.414Z,44.55
2018-05-14T16:16:47.910Z,44.50
2018-05-14T16:19:15.410Z,44.49
2018-05-14T16:21:42.901Z,44.87
2018-05-14T16:24:10.413Z,44.76
2018-05-14T16:26:38.002Z,45.34
2018-05-14T16:29:05.457Z,45.69
2018-05-14T16:31:32.932Z,46.02
2018-05-14T16:34:00.444Z,46.04
2018-05-14T16:36:27.939Z,46.69
2018-05-14T16:38:55.402Z,46.57
2018-05-14T16:41:22.903Z,46.94
2018-05-14T16:43:50.364Z,47.09
2018-05-14T16:46:17.840Z,47.36
2018-05-14T16:48:45.412Z,47.79
2018-05-14T16:51:12.865Z,47.85
2018-05-14T16:53:40.362Z,47.64
2018-05-14T16:56:07.848Z,47.29
2018-05-14T16:58:35.305Z,47.32
2018-05-14T17:01:02.791Z,47.29
2018-05-14T17:03:30.257Z,47.20
2018-05-14T17:05:57.733Z,46.79
2018-05-14T17:08:25.253Z,46.30
2018-05-14T17:10:52.715Z,46.15
2018-05-14T17:13:20.194Z,45.97
2018-05-14T17:15:47.671Z,45.73
2018-05-14T17:18:15.157Z,45.79
2018-05-14T17:20:42.641Z,45.73
2018-05-14T17:23:10.132Z,45.88
2018-05-14T17:25:37.606Z,46.17
2018-05-14T17:28:05.115Z,46.31
2018-05-14T17:30:32.608Z,46.71
2018-05-14T17:33:00.102Z,47.33
2018-05-14T17:35:27.605Z,47.90
2018-05-14T17:37:55.075Z,48.24
2018-05-14T17:40:22.549Z,48.74
2018-05-14T17:42:50.054Z,49.18
2018-05-14T17:45:17.560Z,49.61
2018-05-14T17:47:45.049Z,50.28
2018-05-14T17:50:12.552Z,51.04
2018-05-14T17:52:40.003Z,51.22
2018-05-14T17:55:07.715Z,51.79
2018-05-14T17:57:35.197Z,52.08
2018-05-14T18:00:02.658Z,52.57
2018-05-14T18:02:30.200Z,53.02
2018-05-14T18:04:57.726Z,53.54
2018-05-14T18:07:25.230Z,53.80
2018-05-14T18:09:52.699Z,54.12
2018-05-14T18:12:20.192Z,54.26
2018-05-14T18:14:47.692Z,54.61
2018-05-14T18:17:15.275Z,54.79
2018-05-14T18:19:48.235Z,54.77
2018-05-14T18:22:21.338Z,55.10
2018-05-14T18:24:50.644Z,55.31
2018-05-14T18:27:23.663Z,55.70
2018-05-14T18:29:55.016Z,55.99
2018-05-14T18:32:22.496Z,56.46
2018-05-14T18:34:59.914Z,56.77
2018-05-14T18:37:27.392Z,57.25
2018-05-14T18:39:54.873Z,57.67
2018-05-14T18:42:22.461Z,57.80
2018-05-14T18:44:49.955Z,57.99
2018-05-14T18:47:17.478Z,58.12
2018-05-14T18:49:45.691Z,58.48
2018-05-14T18:52:14.440Z,58.49
2018-05-14T18:54:41.926Z,58.73
2018-05-14T18:57:09.508Z,59.06
2018-05-14T18:59:36.979Z,58.89
2018-05-14T19:02:04.565Z,59.11
2018-05-14T19:04:31.978Z,59.64
2018-05-14T19:06:59.477Z,59.80
2018-05-14T19:09:26.968Z,59.75
2018-05-14T19:11:54.486Z,59.92
2018-05-14T19:14:21.981Z,60.13
2018-05-14T19:16:55.109Z,60.46
2018-05-14T19:21:55.301Z,61.16
2018-05-14T19:24:22.776Z,61.06
2018-05-14T19:26:50.246Z,61.20
2018-05-14T19:29:23.296Z,61.38
2018-05-14T19:31:50.728Z,61.43
2018-05-14T19:34:23.947Z,61.66
2018-05-14T19:36:51.454Z,61.41
2018-05-14T19:39:24.541Z,61.52
2018-05-14T19:41:52.124Z,61.66
2018-05-14T19:44:19.593Z,61.82
2018-05-14T19:46:47.084Z,61.77
2018-05-14T19:49:16.703Z,62.01
2018-05-14T19:51:47.127Z,62.30
2018-05-14T19:54:15.035Z,62.75
2018-05-14T19:56:42.688Z,62.90
2018-05-14T19:59:11.582Z,63.04
2018-05-14T20:01:39.250Z,63.19
2018-05-14T20:04:06.976Z,63.58
2018-05-14T20:06:34.465Z,63.62
2018-05-14T20:09:01.963Z,63.70
2018-05-14T20:11:29.512Z,63.76
2018-05-14T20:13:58.438Z,64.15
2018-05-14T20:16:26.079Z,64.29
2018-05-14T20:18:53.550Z,64.37
2018-05-14T20:21:21.067Z,64.47
2018-05-14T20:23:48.577Z,64.44
2018-05-14T20:26:16.060Z,64.41
2018-05-14T20:28:43.562Z,64.39
2018-05-14T20:31:11.730Z,64.38
2018-05-14T20:33:39.208Z,64.56
2018-05-14T20:36:06.851Z,64.58
2018-05-14T20:38:34.408Z,65.02
2018-05-14T20:41:01.967Z,65.38
2018-05-14T20:43:35.056Z,65.52
2018-05-14T20:49:07.303Z,66.21
2018-05-14T20:51:34.807Z,66.53
2018-05-14T20:57:09.049Z,67.12
2018-05-14T21:02:10.126Z,67.66
2018-05-14T21:04:37.903Z,67.62
2018-05-14T21:07:06.290Z,67.83
2018-05-14T21:09:33.823Z,67.93
2018-05-14T21:12:01.372Z,67.96
2018-05-14T21:14:29.293Z,67.99
2018-05-14T21:16:56.859Z,68.12
2018-05-14T21:19:24.939Z,68.35
2018-05-14T21:21:52.418Z,68.65
2018-05-14T21:24:19.923Z,68.98
2018-05-14T21:26:47.403Z,69.11
2018-05-14T21:29:14.899Z,69.33
2018-05-14T21:31:42.424Z,69.20
2018-05-14T21:34:10.031Z,69.25
2018-05-14T21:36:37.488Z,69.37
2018-05-14T21:39:05.723Z,69.44
2018-05-14T21:41:33.200Z,69.56
2018-05-14T21:44:02.443Z,69.53
2018-05-14T21:46:30.007Z,69.57
2018-05-14T21:48:57.504Z,69.42
2018-05-14T21:51:25.002Z,69.35
2018-05-14T21:53:52.477Z,69.24
2018-05-14T21:56:19.977Z,69.38
2018-05-14T21:58:48.403Z,69.55
2018-05-14T22:01:15.886Z,69.78
2018-05-14T22:03:43.369Z,69.86
2018-05-14T22:06:12.692Z,69.98
2018-05-14T22:08:40.178Z,70.18
2018-05-14T22:11:07.661Z,70.20
2018-05-14T22:13:35.153Z,70.25
2018-05-14T22:16:02.630Z,69.70
2018-05-14T22:18:31.072Z,69.87
2018-05-14T22:20:59.321Z,69.96
2018-05-14T22:23:26.779Z,69.76
2018-05-14T22:25:54.290Z,69.82
2018-05-14T22:28:21.757Z,70.19
2018-05-14T22:30:49.236Z,70.21
2018-05-14T22:33:16.722Z,69.65
2018-05-14T22:35:44.279Z,68.36
